sensor_id;sensor_type;location;lat;lon;timestamp;pressure;altitude;pressure_sealevel;temperature;humidity
82392;BME280;72030;52.284;20.890;2023-11-19T00:00:42;101053.13;;;19.63;37.88
82392;BME280;72030;52.284;20.890;2023-11-19T00:03:12;101055.63;;;19.58;38.12
82392;BME280;72030;52.284;20.890;2023-11-19T00:05:42;101054.27;;;19.57;38.36
82392;BME280;72030;52.284;20.890;2023-11-19T00:08:12;101048.92;;;19.53;38.53
82392;BME280;72030;52.284;20.890;2023-11-19T00:10:41;101052.02;;;19.52;38.77
82392;BME280;72030;52.284;20.890;2023-11-19T00:13:10;101060.54;;;19.55;38.76
82392;BME280;72030;52.284;20.890;2023-11-19T00:15:40;101066.55;;;19.55;38.61
82392;BME280;72030;52.284;20.890;2023-11-19T00:18:09;101069.02;;;19.51;38.73
82392;BME280;72030;52.284;20.890;2023-11-19T00:20:38;101066.73;;;19.47;38.79
82392;BME280;72030;52.284;20.890;2023-11-19T00:23:08;101060.95;;;19.46;38.72
82392;BME280;72030;52.284;20.890;2023-11-19T00:25:37;101051.27;;;19.49;38.70
82392;BME280;72030;52.284;20.890;2023-11-19T00:28:08;101048.73;;;19.46;38.69
82392;BME280;72030;52.284;20.890;2023-11-19T00:30:37;101039.81;;;19.43;38.54
82392;BME280;72030;52.284;20.890;2023-11-19T00:33:08;101039.73;;;19.45;38.57
82392;BME280;72030;52.284;20.890;2023-11-19T00:35:37;101040.04;;;19.46;38.50
82392;BME280;72030;52.284;20.890;2023-11-19T00:38:07;101029.96;;;19.46;38.49
82392;BME280;72030;52.284;20.890;2023-11-19T00:40:36;101024.96;;;19.43;38.51
82392;BME280;72030;52.284;20.890;2023-11-19T00:43:05;101019.67;;;19.43;38.48
82392;BME280;72030;52.284;20.890;2023-11-19T00:45:35;101025.46;;;19.39;38.53
82392;BME280;72030;52.284;20.890;2023-11-19T00:48:05;101016.98;;;19.35;38.57
82392;BME280;72030;52.284;20.890;2023-11-19T00:50:34;101016.08;;;19.35;38.51
82392;BME280;72030;52.284;20.890;2023-11-19T00:53:04;101012.30;;;19.32;38.54
82392;BME280;72030;52.284;20.890;2023-11-19T00:55:33;101009.64;;;19.37;38.46
82392;BME280;72030;52.284;20.890;2023-11-19T00:58:02;101006.42;;;19.33;38.41
82392;BME280;72030;52.284;20.890;2023-11-19T01:00:32;100996.20;;;19.32;38.49
82392;BME280;72030;52.284;20.890;2023-11-19T01:03:03;100982.10;;;19.35;38.34
82392;BME280;72030;52.284;20.890;2023-11-19T01:05:34;100979.94;;;19.32;38.36
82392;BME280;72030;52.284;20.890;2023-11-19T01:08:03;100977.27;;;19.32;38.26
82392;BME280;72030;52.284;20.890;2023-11-19T01:10:34;100976.45;;;19.30;38.32
82392;BME280;72030;52.284;20.890;2023-11-19T01:13:05;100971.80;;;19.28;38.29
82392;BME280;72030;52.284;20.890;2023-11-19T01:15:34;100968.31;;;19.27;38.26
82392;BME280;72030;52.284;20.890;2023-11-19T01:18:05;100964.65;;;19.29;38.28
82392;BME280;72030;52.284;20.890;2023-11-19T01:20:37;100956.14;;;19.21;38.39
82392;BME280;72030;52.284;20.890;2023-11-19T01:23:06;100956.83;;;19.22;38.23
82392;BME280;72030;52.284;20.890;2023-11-19T01:25:35;100948.92;;;19.20;38.33
82392;BME280;72030;52.284;20.890;2023-11-19T01:28:06;100948.90;;;19.21;38.24
82392;BME280;72030;52.284;20.890;2023-11-19T01:30:35;100945.95;;;19.19;38.35
82392;BME280;72030;52.284;20.890;2023-11-19T01:33:04;100954.35;;;19.18;38.32
82392;BME280;72030;52.284;20.890;2023-11-19T01:35:35;100960.05;;;19.16;38.30
82392;BME280;72030;52.284;20.890;2023-11-19T01:38:04;100963.16;;;19.19;38.29
82392;BME280;72030;52.284;20.890;2023-11-19T01:40:33;100960.52;;;19.14;38.29
82392;BME280;72030;52.284;20.890;2023-11-19T01:43:02;100954.98;;;19.11;38.34
82392;BME280;72030;52.284;20.890;2023-11-19T01:45:32;100944.58;;;19.14;38.28
82392;BME280;72030;52.284;20.890;2023-11-19T01:48:03;100943.45;;;19.08;38.44
82392;BME280;72030;52.284;20.890;2023-11-19T01:50:34;100935.86;;;19.07;38.47
82392;BME280;72030;52.284;20.890;2023-11-19T01:53:04;100929.98;;;19.08;38.45
82392;BME280;72030;52.284;20.890;2023-11-19T01:55:33;100923.91;;;19.10;38.28
82392;BME280;72030;52.284;20.890;2023-11-19T01:58:02;100918.95;;;19.06;38.35
82392;BME280;72030;52.284;20.890;2023-11-19T02:00:33;100913.43;;;19.07;38.30
82392;BME280;72030;52.284;20.890;2023-11-19T02:03:02;100914.21;;;19.05;38.37
82392;BME280;72030;52.284;20.890;2023-11-19T02:05:32;100906.15;;;19.03;38.33
82392;BME280;72030;52.284;20.890;2023-11-19T02:08:02;100906.81;;;19.00;38.45
82392;BME280;72030;52.284;20.890;2023-11-19T02:10:32;100913.15;;;19.01;38.49
82392;BME280;72030;52.284;20.890;2023-11-19T02:13:01;100910.81;;;19.06;38.35
82392;BME280;72030;52.284;20.890;2023-11-19T02:15:33;100902.73;;;19.04;38.26
82392;BME280;72030;52.284;20.890;2023-11-19T02:20:38;100899.45;;;18.98;38.35
82392;BME280;72030;52.284;20.890;2023-11-19T02:23:08;100894.31;;;18.99;38.36
82392;BME280;72030;52.284;20.890;2023-11-19T02:25:39;100895.67;;;18.96;38.23
82392;BME280;72030;52.284;20.890;2023-11-19T02:28:09;100894.41;;;18.92;38.50
82392;BME280;72030;52.284;20.890;2023-11-19T02:30:40;100887.80;;;18.94;38.36
82392;BME280;72030;52.284;20.890;2023-11-19T02:33:10;100883.98;;;18.92;38.35
82392;BME280;72030;52.284;20.890;2023-11-19T02:35:41;100879.89;;;18.97;38.30
82392;BME280;72030;52.284;20.890;2023-11-19T02:38:11;100873.24;;;18.95;38.22
82392;BME280;72030;52.284;20.890;2023-11-19T02:40:42;100870.20;;;18.96;38.10
82392;BME280;72030;52.284;20.890;2023-11-19T02:43:11;100875.16;;;18.96;38.10
82392;BME280;72030;52.284;20.890;2023-11-19T02:45:41;100879.29;;;18.95;38.14
82392;BME280;72030;52.284;20.890;2023-11-19T02:48:13;100872.22;;;18.90;38.26
82392;BME280;72030;52.284;20.890;2023-11-19T02:50:44;100866.08;;;18.89;38.23
82392;BME280;72030;52.284;20.890;2023-11-19T02:53:15;100862.77;;;18.92;38.22
82392;BME280;72030;52.284;20.890;2023-11-19T02:55:45;100856.02;;;18.88;38.24
82392;BME280;72030;52.284;20.890;2023-11-19T02:58:17;100839.02;;;18.89;38.12
82392;BME280;72030;52.284;20.890;2023-11-19T03:00:52;100831.52;;;18.91;38.15
82392;BME280;72030;52.284;20.890;2023-11-19T03:03:26;100829.68;;;18.88;38.26
82392;BME280;72030;52.284;20.890;2023-11-19T03:06:07;100828.12;;;18.87;38.11
82392;BME280;72030;52.284;20.890;2023-11-19T03:08:37;100827.66;;;18.86;38.15
82392;BME280;72030;52.284;20.890;2023-11-19T03:11:07;100826.09;;;18.81;38.35
82392;BME280;72030;52.284;20.890;2023-11-19T03:13:37;100824.36;;;18.80;38.26
82392;BME280;72030;52.284;20.890;2023-11-19T03:16:07;100821.16;;;18.81;38.35
82392;BME280;72030;52.284;20.890;2023-11-19T03:18:36;100811.83;;;18.84;38.18
82392;BME280;72030;52.284;20.890;2023-11-19T03:21:07;100802.89;;;18.86;38.16
82392;BME280;72030;52.284;20.890;2023-11-19T03:23:37;100797.48;;;18.80;38.18
82392;BME280;72030;52.284;20.890;2023-11-19T03:26:08;100793.19;;;18.81;38.28
82392;BME280;72030;52.284;20.890;2023-11-19T03:28:39;100791.39;;;18.78;38.27
82392;BME280;72030;52.284;20.890;2023-11-19T03:31:08;100788.05;;;18.78;38.29
82392;BME280;72030;52.284;20.890;2023-11-19T03:33:38;100784.99;;;18.79;38.34
82392;BME280;72030;52.284;20.890;2023-11-19T03:36:08;100784.72;;;18.73;38.23
82392;BME280;72030;52.284;20.890;2023-11-19T03:38:38;100786.62;;;18.74;38.31
82392;BME280;72030;52.284;20.890;2023-11-19T03:41:13;100788.36;;;18.75;38.24
82392;BME280;72030;52.284;20.890;2023-11-19T03:43:42;100781.90;;;18.73;38.32
82392;BME280;72030;52.284;20.890;2023-11-19T03:46:19;100776.21;;;18.73;38.27
82392;BME280;72030;52.284;20.890;2023-11-19T03:48:49;100780.19;;;18.71;38.16
82392;BME280;72030;52.284;20.890;2023-11-19T03:51:18;100775.92;;;18.72;38.22
82392;BME280;72030;52.284;20.890;2023-11-19T03:53:47;100771.29;;;18.72;38.21
82392;BME280;72030;52.284;20.890;2023-11-19T03:56:17;100768.38;;;18.70;38.18
82392;BME280;72030;52.284;20.890;2023-11-19T03:58:46;100756.08;;;18.73;38.25
82392;BME280;72030;52.284;20.890;2023-11-19T04:01:15;100749.09;;;18.71;38.37
82392;BME280;72030;52.284;20.890;2023-11-19T04:03:44;100748.45;;;18.78;38.17
82392;BME280;72030;52.284;20.890;2023-11-19T04:06:14;100743.23;;;18.72;38.21
82392;BME280;72030;52.284;20.890;2023-11-19T04:08:43;100737.83;;;18.70;38.34
82392;BME280;72030;52.284;20.890;2023-11-19T04:11:13;100731.39;;;18.67;38.19
82392;BME280;72030;52.284;20.890;2023-11-19T04:13:42;100722.19;;;18.67;38.16
82392;BME280;72030;52.284;20.890;2023-11-19T04:16:11;100713.20;;;18.71;38.12
82392;BME280;72030;52.284;20.890;2023-11-19T04:18:42;100713.48;;;18.68;38.15
82392;BME280;72030;52.284;20.890;2023-11-19T04:21:11;100715.52;;;18.66;38.26
82392;BME280;72030;52.284;20.890;2023-11-19T04:23:40;100710.73;;;18.67;38.38
82392;BME280;72030;52.284;20.890;2023-11-19T04:26:09;100706.42;;;18.64;38.48
82392;BME280;72030;52.284;20.890;2023-11-19T04:28:39;100699.44;;;18.66;38.51
82392;BME280;72030;52.284;20.890;2023-11-19T04:31:08;100698.39;;;18.65;38.48
82392;BME280;72030;52.284;20.890;2023-11-19T04:33:38;100692.14;;;18.67;38.31
82392;BME280;72030;52.284;20.890;2023-11-19T04:36:09;100683.86;;;18.66;38.36
82392;BME280;72030;52.284;20.890;2023-11-19T04:38:39;100679.91;;;18.64;38.35
82392;BME280;72030;52.284;20.890;2023-11-19T04:41:09;100677.27;;;18.64;38.23
82392;BME280;72030;52.284;20.890;2023-11-19T04:43:38;100681.64;;;18.60;38.25
82392;BME280;72030;52.284;20.890;2023-11-19T04:46:10;100683.74;;;18.61;38.18
82392;BME280;72030;52.284;20.890;2023-11-19T04:48:39;100676.02;;;18.60;38.19
82392;BME280;72030;52.284;20.890;2023-11-19T04:51:09;100675.88;;;18.67;38.08
82392;BME280;72030;52.284;20.890;2023-11-19T04:53:38;100671.89;;;18.70;37.94
82392;BME280;72030;52.284;20.890;2023-11-19T04:56:11;100668.50;;;18.78;37.74
82392;BME280;72030;52.284;20.890;2023-11-19T04:58:41;100664.69;;;18.88;37.49
82392;BME280;72030;52.284;20.890;2023-11-19T05:01:14;100665.61;;;18.95;37.32
82392;BME280;72030;52.284;20.890;2023-11-19T05:03:45;100664.77;;;19.01;37.18
82392;BME280;72030;52.284;20.890;2023-11-19T05:06:14;100660.75;;;19.05;37.16
82392;BME280;72030;52.284;20.890;2023-11-19T05:08:44;100656.41;;;19.14;36.98
82392;BME280;72030;52.284;20.890;2023-11-19T05:11:13;100651.70;;;19.17;36.99
82392;BME280;72030;52.284;20.890;2023-11-19T05:13:46;100645.21;;;19.23;36.93
82392;BME280;72030;52.284;20.890;2023-11-19T05:16:15;100646.08;;;19.31;36.81
82392;BME280;72030;52.284;20.890;2023-11-19T05:18:45;100645.56;;;19.42;36.58
82392;BME280;72030;52.284;20.890;2023-11-19T05:21:15;100636.98;;;19.44;36.48
82392;BME280;72030;52.284;20.890;2023-11-19T05:23:45;100635.94;;;19.50;36.40
82392;BME280;72030;52.284;20.890;2023-11-19T05:26:20;100630.41;;;19.55;36.34
82392;BME280;72030;52.284;20.890;2023-11-19T05:28:50;100625.14;;;19.57;36.16
82392;BME280;72030;52.284;20.890;2023-11-19T05:31:19;100621.94;;;19.62;36.11
82392;BME280;72030;52.284;20.890;2023-11-19T05:33:49;100623.87;;;19.66;36.03
82392;BME280;72030;52.284;20.890;2023-11-19T05:36:18;100621.54;;;19.67;36.15
82392;BME280;72030;52.284;20.890;2023-11-19T05:38:47;100621.58;;;19.73;36.04
82392;BME280;72030;52.284;20.890;2023-11-19T05:41:17;100618.22;;;19.76;36.11
82392;BME280;72030;52.284;20.890;2023-11-19T05:43:45;100618.88;;;19.77;36.01
82392;BME280;72030;52.284;20.890;2023-11-19T05:46:15;100618.95;;;19.79;35.94
82392;BME280;72030;52.284;20.890;2023-11-19T05:48:44;100615.85;;;19.81;35.85
82392;BME280;72030;52.284;20.890;2023-11-19T05:51:14;100612.64;;;19.81;35.95
82392;BME280;72030;52.284;20.890;2023-11-19T05:53:43;100606.48;;;19.84;35.89
82392;BME280;72030;52.284;20.890;2023-11-19T05:56:14;100605.33;;;19.86;35.81
82392;BME280;72030;52.284;20.890;2023-11-19T05:58:49;100600.31;;;19.91;35.78
82392;BME280;72030;52.284;20.890;2023-11-19T06:01:19;100605.60;;;19.91;35.70
82392;BME280;72030;52.284;20.890;2023-11-19T06:03:49;100611.08;;;19.92;35.82
82392;BME280;72030;52.284;20.890;2023-11-19T06:06:18;100609.40;;;19.93;35.80
82392;BME280;72030;52.284;20.890;2023-11-19T06:08:48;100603.65;;;19.95;35.64
82392;BME280;72030;52.284;20.890;2023-11-19T06:11:18;100602.59;;;19.95;35.76
82392;BME280;72030;52.284;20.890;2023-11-19T06:13:48;100602.66;;;19.97;35.76
82392;BME280;72030;52.284;20.890;2023-11-19T06:16:18;100605.06;;;19.98;35.76
82392;BME280;72030;52.284;20.890;2023-11-19T06:18:48;100600.81;;;19.98;35.87
82392;BME280;72030;52.284;20.890;2023-11-19T06:21:17;100596.02;;;20.02;35.76
82392;BME280;72030;52.284;20.890;2023-11-19T06:23:46;100594.88;;;20.03;35.64
82392;BME280;72030;52.284;20.890;2023-11-19T06:26:16;100592.02;;;20.03;35.64
82392;BME280;72030;52.284;20.890;2023-11-19T06:28:45;100585.95;;;20.05;35.71
82392;BME280;72030;52.284;20.890;2023-11-19T06:31:15;100581.56;;;20.07;35.71
82392;BME280;72030;52.284;20.890;2023-11-19T06:33:44;100587.17;;;20.08;35.66
82392;BME280;72030;52.284;20.890;2023-11-19T06:36:16;100576.58;;;20.11;35.54
82392;BME280;72030;52.284;20.890;2023-11-19T06:38:45;100569.73;;;20.13;35.63
82392;BME280;72030;52.284;20.890;2023-11-19T06:41:14;100563.63;;;20.11;35.50
82392;BME280;72030;52.284;20.890;2023-11-19T06:43:43;100559.80;;;20.14;35.61
82392;BME280;72030;52.284;20.890;2023-11-19T06:46:16;100551.15;;;20.16;35.39
82392;BME280;72030;52.284;20.890;2023-11-19T06:48:46;100548.83;;;20.13;35.45
82392;BME280;72030;52.284;20.890;2023-11-19T06:51:16;100546.65;;;20.17;35.56
82392;BME280;72030;52.284;20.890;2023-11-19T06:53:46;100544.46;;;20.15;35.44
82392;BME280;72030;52.284;20.890;2023-11-19T06:56:19;100542.41;;;20.17;35.53
82392;BME280;72030;52.284;20.890;2023-11-19T06:58:49;100542.60;;;20.17;35.53
82392;BME280;72030;52.284;20.890;2023-11-19T07:01:19;100537.56;;;20.19;35.45
82392;BME280;72030;52.284;20.890;2023-11-19T07:03:50;100532.55;;;20.19;35.49
82392;BME280;72030;52.284;20.890;2023-11-19T07:06:19;100527.49;;;20.21;35.33
82392;BME280;72030;52.284;20.890;2023-11-19T07:08:48;100528.20;;;20.24;35.29
82392;BME280;72030;52.284;20.890;2023-11-19T07:11:17;100528.66;;;20.29;35.26
82392;BME280;72030;52.284;20.890;2023-11-19T07:13:46;100524.95;;;20.25;35.38
82392;BME280;72030;52.284;20.890;2023-11-19T07:16:16;100522.70;;;20.27;35.40
82392;BME280;72030;52.284;20.890;2023-11-19T07:18:45;100513.96;;;20.29;35.25
82392;BME280;72030;52.284;20.890;2023-11-19T07:21:17;100513.64;;;20.28;35.45
82392;BME280;72030;52.284;20.890;2023-11-19T07:23:47;100513.90;;;20.30;35.29
82392;BME280;72030;52.284;20.890;2023-11-19T07:26:17;100512.54;;;20.29;35.36
82392;BME280;72030;52.284;20.890;2023-11-19T07:28:46;100510.71;;;20.30;35.22
82392;BME280;72030;52.284;20.890;2023-11-19T07:31:16;100515.62;;;20.31;35.32
82392;BME280;72030;52.284;20.890;2023-11-19T07:33:47;100512.38;;;20.35;35.14
82392;BME280;72030;52.284;20.890;2023-11-19T07:36:17;100509.11;;;20.37;35.16
82392;BME280;72030;52.284;20.890;2023-11-19T07:38:47;100502.17;;;20.34;35.30
82392;BME280;72030;52.284;20.890;2023-11-19T07:41:16;100497.60;;;20.33;35.24
82392;BME280;72030;52.284;20.890;2023-11-19T07:43:46;100494.48;;;20.35;35.07
82392;BME280;72030;52.284;20.890;2023-11-19T07:46:15;100494.60;;;20.36;35.29
82392;BME280;72030;52.284;20.890;2023-11-19T07:48:48;100492.41;;;20.38;35.04
82392;BME280;72030;52.284;20.890;2023-11-19T07:51:17;100487.84;;;20.40;35.03
82392;BME280;72030;52.284;20.890;2023-11-19T07:53:47;100479.23;;;20.39;35.11
82392;BME280;72030;52.284;20.890;2023-11-19T07:56:17;100473.83;;;20.37;35.23
82392;BME280;72030;52.284;20.890;2023-11-19T07:58:46;100470.33;;;20.43;34.97
82392;BME280;72030;52.284;20.890;2023-11-19T08:01:17;100471.30;;;20.41;34.89
82392;BME280;72030;52.284;20.890;2023-11-19T08:03:46;100467.92;;;20.41;35.00
82392;BME280;72030;52.284;20.890;2023-11-19T08:06:16;100468.27;;;20.42;35.04
82392;BME280;72030;52.284;20.890;2023-11-19T08:08:45;100462.88;;;20.43;34.76
82392;BME280;72030;52.284;20.890;2023-11-19T08:11:15;100457.16;;;20.46;34.52
82392;BME280;72030;52.284;20.890;2023-11-19T08:13:44;100455.98;;;20.45;34.75
82392;BME280;72030;52.284;20.890;2023-11-19T08:16:13;100457.36;;;20.46;34.64
82392;BME280;72030;52.284;20.890;2023-11-19T08:18:44;100454.31;;;20.47;34.72
82392;BME280;72030;52.284;20.890;2023-11-19T08:21:14;100445.84;;;20.50;34.65
82392;BME280;72030;52.284;20.890;2023-11-19T08:23:43;100435.48;;;20.51;34.80
82392;BME280;72030;52.284;20.890;2023-11-19T08:26:12;100433.55;;;20.51;34.60
82392;BME280;72030;52.284;20.890;2023-11-19T08:28:43;100432.67;;;20.51;34.72
82392;BME280;72030;52.284;20.890;2023-11-19T08:31:13;100425.42;;;20.50;34.54
82392;BME280;72030;52.284;20.890;2023-11-19T08:33:42;100425.92;;;20.51;34.54
82392;BME280;72030;52.284;20.890;2023-11-19T08:36:17;100425.56;;;20.54;34.48
82392;BME280;72030;52.284;20.890;2023-11-19T08:38:46;100430.45;;;20.55;34.42
82392;BME280;72030;52.284;20.890;2023-11-19T08:41:17;100426.61;;;20.57;34.48
82392;BME280;72030;52.284;20.890;2023-11-19T08:43:47;100424.85;;;20.57;34.37
82392;BME280;72030;52.284;20.890;2023-11-19T08:46:16;100424.66;;;20.58;34.44
82392;BME280;72030;52.284;20.890;2023-11-19T08:48:45;100424.80;;;20.58;34.62
82392;BME280;72030;52.284;20.890;2023-11-19T08:51:14;100423.08;;;20.64;34.55
82392;BME280;72030;52.284;20.890;2023-11-19T08:53:43;100420.58;;;20.70;34.62
82392;BME280;72030;52.284;20.890;2023-11-19T08:56:13;100415.97;;;20.79;34.51
82392;BME280;72030;52.284;20.890;2023-11-19T08:58:42;100416.02;;;20.76;34.67
82392;BME280;72030;52.284;20.890;2023-11-19T09:01:11;100404.27;;;20.73;34.78
82392;BME280;72030;52.284;20.890;2023-11-19T09:03:40;100393.70;;;20.69;34.96
82392;BME280;72030;52.284;20.890;2023-11-19T09:06:09;100386.02;;;20.73;35.03
82392;BME280;72030;52.284;20.890;2023-11-19T09:08:38;100388.17;;;20.69;35.17
82392;BME280;72030;52.284;20.890;2023-11-19T09:11:10;100382.43;;;20.64;35.53
82392;BME280;72030;52.284;20.890;2023-11-19T09:13:38;100374.46;;;20.67;35.21
82392;BME280;72030;52.284;20.890;2023-11-19T09:16:08;100365.44;;;20.67;35.36
82392;BME280;72030;52.284;20.890;2023-11-19T09:18:38;100361.42;;;20.69;35.21
82392;BME280;72030;52.284;20.890;2023-11-19T09:21:07;100359.28;;;20.72;35.30
82392;BME280;72030;52.284;20.890;2023-11-19T09:23:36;100362.36;;;20.80;35.02
82392;BME280;72030;52.284;20.890;2023-11-19T09:26:07;100358.80;;;20.77;35.38
82392;BME280;72030;52.284;20.890;2023-11-19T09:28:38;100351.52;;;20.71;35.37
82392;BME280;72030;52.284;20.890;2023-11-19T09:31:15;100353.99;;;20.66;35.30
82392;BME280;72030;52.284;20.890;2023-11-19T09:33:45;100350.16;;;20.62;35.25
82392;BME280;72030;52.284;20.890;2023-11-19T09:36:15;100350.91;;;20.61;35.21
82392;BME280;72030;52.284;20.890;2023-11-19T09:38:45;100345.70;;;20.59;35.17
82392;BME280;72030;52.284;20.890;2023-11-19T09:41:14;100341.46;;;20.52;35.23
82392;BME280;72030;52.284;20.890;2023-11-19T09:43:47;100340.44;;;20.52;35.01
82392;BME280;72030;52.284;20.890;2023-11-19T09:46:17;100341.34;;;20.48;35.14
82392;BME280;72030;52.284;20.890;2023-11-19T09:48:47;100338.14;;;20.52;35.00
82392;BME280;72030;52.284;20.890;2023-11-19T09:51:20;100333.14;;;20.58;34.91
82392;BME280;72030;52.284;20.890;2023-11-19T09:53:50;100325.94;;;20.66;34.94
82392;BME280;72030;52.284;20.890;2023-11-19T09:56:20;100321.01;;;20.69;35.08
82392;BME280;72030;52.284;20.890;2023-11-19T09:58:50;100323.40;;;20.70;35.26
82392;BME280;72030;52.284;20.890;2023-11-19T10:01:19;100317.90;;;20.61;35.47
82392;BME280;72030;52.284;20.890;2023-11-19T10:03:50;100311.02;;;20.64;35.34
82392;BME280;72030;52.284;20.890;2023-11-19T10:06:25;100307.44;;;20.70;35.45
82392;BME280;72030;52.284;20.890;2023-11-19T10:08:56;100298.43;;;20.78;35.64
82392;BME280;72030;52.284;20.890;2023-11-19T10:11:26;100297.02;;;20.82;35.81
82392;BME280;72030;52.284;20.890;2023-11-19T10:13:56;100290.38;;;20.80;35.91
82392;BME280;72030;52.284;20.890;2023-11-19T10:16:30;100289.60;;;20.78;36.18
82392;BME280;72030;52.284;20.890;2023-11-19T10:19:00;100283.23;;;20.78;36.13
82392;BME280;72030;52.284;20.890;2023-11-19T10:21:33;100281.55;;;20.79;36.35
82392;BME280;72030;52.284;20.890;2023-11-19T10:24:03;100280.90;;;20.84;36.14
82392;BME280;72030;52.284;20.890;2023-11-19T10:26:33;100270.94;;;20.85;36.23
82392;BME280;72030;52.284;20.890;2023-11-19T10:29:02;100270.49;;;20.86;36.08
82392;BME280;72030;52.284;20.890;2023-11-19T10:31:32;100258.36;;;20.84;36.14
82392;BME280;72030;52.284;20.890;2023-11-19T10:34:01;100256.45;;;20.84;35.98
82392;BME280;72030;52.284;20.890;2023-11-19T10:36:39;100251.42;;;20.85;35.89
82392;BME280;72030;52.284;20.890;2023-11-19T10:39:10;100248.34;;;20.82;36.04
82392;BME280;72030;52.284;20.890;2023-11-19T10:41:40;100243.50;;;20.84;35.94
82392;BME280;72030;52.284;20.890;2023-11-19T10:44:10;100240.83;;;20.84;35.88
82392;BME280;72030;52.284;20.890;2023-11-19T10:46:41;100233.70;;;20.81;35.83
82392;BME280;72030;52.284;20.890;2023-11-19T10:49:11;100230.39;;;20.83;35.72
82392;BME280;72030;52.284;20.890;2023-11-19T10:51:45;100221.90;;;20.83;35.76
82392;BME280;72030;52.284;20.890;2023-11-19T10:54:17;100212.92;;;20.82;35.59
82392;BME280;72030;52.284;20.890;2023-11-19T10:56:54;100204.41;;;20.76;35.80
82392;BME280;72030;52.284;20.890;2023-11-19T10:59:24;100199.08;;;20.74;36.06
82392;BME280;72030;52.284;20.890;2023-11-19T11:01:55;100196.35;;;20.72;35.88
82392;BME280;72030;52.284;20.890;2023-11-19T11:04:26;100186.52;;;20.70;35.93
82392;BME280;72030;52.284;20.890;2023-11-19T11:06:56;100183.81;;;20.79;35.68
82392;BME280;72030;52.284;20.890;2023-11-19T11:09:28;100174.52;;;20.83;35.85
82392;BME280;72030;52.284;20.890;2023-11-19T11:12:00;100171.78;;;20.82;35.72
82392;BME280;72030;52.284;20.890;2023-11-19T11:14:29;100162.52;;;20.88;35.69
82392;BME280;72030;52.284;20.890;2023-11-19T11:16:59;100160.27;;;20.94;35.49
82392;BME280;72030;52.284;20.890;2023-11-19T11:19:30;100153.34;;;20.88;35.58
82392;BME280;72030;52.284;20.890;2023-11-19T11:22:00;100145.81;;;20.80;35.72
82392;BME280;72030;52.284;20.890;2023-11-19T11:24:53;100140.41;;;20.85;35.78
82392;BME280;72030;52.284;20.890;2023-11-19T11:27:45;100134.49;;;20.89;35.80
82392;BME280;72030;52.284;20.890;2023-11-19T11:30:40;100136.23;;;20.83;36.99
82392;BME280;72030;52.284;20.890;2023-11-19T11:33:25;100138.46;;;20.85;36.66
82392;BME280;72030;52.284;20.890;2023-11-19T11:36:06;100130.58;;;20.66;36.38
82392;BME280;72030;52.284;20.890;2023-11-19T11:38:41;100126.70;;;20.60;36.19
82392;BME280;72030;52.284;20.890;2023-11-19T11:41:22;100118.27;;;20.55;36.27
82392;BME280;72030;52.284;20.890;2023-11-19T11:43:54;100111.08;;;20.51;36.14
82392;BME280;72030;52.284;20.890;2023-11-19T11:49:03;100101.52;;;20.48;35.89
82392;BME280;72030;52.284;20.890;2023-11-19T11:54:09;100090.98;;;20.46;35.69
